Time;durP1;ratioP1;P1;durP2;ratioP2;P2;SDS_P1;SDS_P2;PMS_P1;PMS_P2;Temp;Humidity;BMP_temperature;BMP_pressure;BME280_temperature;BME280_humidity;BME280_pressure;Samples;Min_cycle;Max_cycle;Signal;HPM_P1;HPM_P2
2023/12/27 00:01:49;;;;;;;16.20;8.03;;;;;;;14.40;47.45;102145.22;5052895;28;20532;-76
2023/12/27 00:04:15;;;;;;;18.73;5.97;;;;;;;14.23;47.68;102152.31;5070674;28;20036;-76
2023/12/27 00:06:40;;;;;;;13.03;6.77;;;;;;;14.18;48.09;102154.97;5055340;28;20031;-77
2023/12/27 00:09:06;;;;;;;19.53;7.20;;;;;;;14.46;47.50;102148.72;5050328;28;20400;-76
2023/12/27 00:11:32;;;;;;;19.40;6.53;;;;;;;14.65;46.67;102149.53;5050782;28;20102;-76
2023/12/27 00:13:58;;;;;;;10.63;5.53;;;;;;;14.73;46.86;102143.31;5085815;28;20032;-77
2023/12/27 00:16:23;;;;;;;11.23;6.07;;;;;;;14.38;47.35;102139.13;5050521;28;20457;-77
2023/12/27 00:18:49;;;;;;;16.03;6.63;;;;;;;14.54;47.29;102146.94;5054311;28;20049;-76
2023/12/27 00:21:14;;;;;;;16.57;6.17;;;;;;;14.62;46.99;102144.22;5041617;28;20108;-76
2023/12/27 00:23:39;;;;;;;12.77;5.60;;;;;;;14.32;47.25;102136.50;5058635;28;20047;-76
2023/12/27 00:26:05;;;;;;;12.40;5.77;;;;;;;14.43;47.24;102134.69;5052242;28;20065;-76
2023/12/27 00:28:31;;;;;;;15.07;6.53;;;;;;;14.30;47.19;102138.28;5064063;28;20036;-76
2023/12/27 00:30:56;;;;;;;15.10;5.73;;;;;;;14.66;46.96;102143.34;5050652;28;20427;-77
2023/12/27 00:33:21;;;;;;;17.37;5.73;;;;;;;14.48;46.74;102141.69;5062109;28;20134;-76
2023/12/27 00:35:47;;;;;;;16.37;6.17;;;;;;;14.41;47.11;102136.47;5067378;28;20039;-76
2023/12/27 00:38:12;;;;;;;15.97;5.20;;;;;;;14.41;46.74;102136.47;5059858;28;20479;-76
2023/12/27 00:40:38;;;;;;;14.97;5.13;;;;;;;14.38;47.65;102140.84;5057460;28;20037;-77
2023/12/27 00:43:04;;;;;;;19.10;6.03;;;;;;;13.47;49.73;102135.91;5058037;28;20124;-76
2023/12/27 00:45:29;;;;;;;17.57;5.93;;;;;;;13.93;48.53;102138.44;5069981;28;20021;-76
2023/12/27 00:47:55;;;;;;;13.23;5.83;;;;;;;14.26;47.70;102141.81;5064382;28;20556;-77
2023/12/27 00:50:20;;;;;;;16.87;6.00;;;;;;;13.76;49.14;102150.75;5049588;28;20085;-76
2023/12/27 00:52:46;;;;;;;16.43;6.20;;;;;;;13.48;49.94;102153.41;5054467;28;20036;-76
2023/12/27 00:55:11;;;;;;;12.30;5.20;;;;;;;13.87;49.37;102143.69;5068977;28;20035;-77
2023/12/27 00:57:36;;;;;;;14.50;6.60;;;;;;;14.04;48.92;102136.63;5054420;28;20148;-76
2023/12/27 01:00:03;;;;;;;20.30;8.37;;;;;;;14.03;49.37;102128.75;5071704;28;20066;-76
2023/12/27 01:02:34;;;;;;;25.27;10.13;;;;;;;14.22;49.17;102117.28;5067331;28;20387;-76
2023/12/27 01:05:00;;;;;;;30.23;10.00;;;;;;;14.33;48.73;102111.97;5049557;28;20028;-76
2023/12/27 01:07:25;;;;;;;18.70;8.33;;;;;;;14.64;47.93;102118.81;5051189;28;20029;-76
2023/12/27 01:09:51;;;;;;;18.93;8.93;;;;;;;14.66;47.19;102110.03;5070055;28;20028;-76
2023/12/27 01:12:16;;;;;;;23.03;8.77;;;;;;;14.69;47.38;102110.00;5059769;28;20119;-76
2023/12/27 01:14:41;;;;;;;21.17;9.20;;;;;;;14.50;47.73;102114.50;5071083;28;20118;-76
2023/12/27 01:17:07;;;;;;;19.50;7.40;;;;;;;14.60;47.10;102115.31;5071317;28;20472;-77
2023/12/27 01:19:33;;;;;;;18.60;6.20;;;;;;;14.21;48.59;102118.16;5049721;28;20040;-76
2023/12/27 01:21:58;;;;;;;14.80;6.90;;;;;;;13.83;49.34;102116.53;5049189;28;20017;-76
2023/12/27 01:24:24;;;;;;;15.20;6.70;;;;;;;14.39;47.66;102113.69;5067121;28;20107;-76
2023/12/27 01:26:49;;;;;;;17.23;5.50;;;;;;;14.30;48.08;102114.63;5068928;28;20375;-76
2023/12/27 01:29:14;;;;;;;17.83;7.20;;;;;;;13.70;49.23;102120.97;5056745;28;20033;-76
2023/12/27 01:31:40;;;;;;;15.70;6.03;;;;;;;13.96;48.78;102122.66;5049484;28;20040;-76
2023/12/27 01:34:05;;;;;;;15.40;5.70;;;;;;;13.72;49.76;102129.72;5060725;28;20032;-76
2023/12/27 01:36:31;;;;;;;16.33;6.07;;;;;;;13.42;49.94;102129.78;5057452;28;20029;-76
2023/12/27 01:38:56;;;;;;;13.00;5.30;;;;;;;13.98;48.73;102136.66;5049500;28;20063;-76
2023/12/27 01:41:22;;;;;;;11.03;5.37;;;;;;;13.99;48.17;102127.03;5048757;28;20056;-76
2023/12/27 01:43:47;;;;;;;7.50;4.53;;;;;;;14.26;47.67;102131.28;5049269;28;20024;-76
2023/12/27 01:46:12;;;;;;;10.40;5.57;;;;;;;13.90;48.42;102133.16;5065628;28;20472;-76
2023/12/27 01:48:40;;;;;;;10.87;5.43;;;;;;;13.26;50.61;102135.00;5053806;28;20103;-76
2023/12/27 01:51:06;;;;;;;15.53;5.40;;;;;;;13.55;49.23;102126.25;5071043;28;20036;-76
2023/12/27 01:53:31;;;;;;;16.37;6.07;;;;;;;13.71;49.39;102117.47;5060704;28;20359;-76
2023/12/27 01:55:57;;;;;;;9.80;4.83;;;;;;;13.66;49.83;102124.47;5039541;28;20067;-76
2023/12/27 01:58:22;;;;;;;13.13;6.10;;;;;;;13.88;48.74;102113.91;5049212;28;20482;-76
2023/12/27 02:00:48;;;;;;;12.83;5.90;;;;;;;13.95;48.69;102105.13;5054494;28;20320;-76
2023/12/27 02:03:14;;;;;;;11.30;5.47;;;;;;;13.73;49.28;102107.81;5049446;28;20017;-76
2023/12/27 02:05:40;;;;;;;13.10;4.97;;;;;;;13.19;50.49;102109.66;5063868;28;20032;-76
2023/12/27 02:08:09;;;;;;;13.40;5.03;;;;;;;13.96;49.59;102098.09;5065816;28;20079;-76
2023/12/27 02:10:35;;;;;;;10.13;4.87;;;;;;;13.63;50.22;102103.47;5063321;28;20082;-76
2023/12/27 02:13:04;;;;;;;13.07;5.20;;;;;;;13.96;49.19;102112.13;5053559;28;20021;-76
2023/12/27 02:15:30;;;;;;;8.37;4.93;;;;;;;14.20;49.20;102115.53;5061523;28;20089;-77
2023/12/27 02:17:56;;;;;;;13.97;6.03;;;;;;;14.18;49.21;102112.06;5047361;28;20029;-76
2023/12/27 02:20:24;;;;;;;21.13;7.10;;;;;;;14.30;48.53;102112.00;5051662;28;20035;-76
2023/12/27 02:22:52;;;;;;;9.73;5.50;;;;;;;13.46;50.30;102115.75;5068017;28;20032;-76
2023/12/27 02:25:17;;;;;;;10.93;5.97;;;;;;;14.35;48.50;102104.94;5058878;28;20577;-77
2023/12/27 02:27:45;;;;;;;22.10;6.10;;;;;;;14.27;48.41;102104.09;5061776;28;20103;-77
2023/12/27 02:30:21;;;;;;;24.03;6.13;;;;;;;14.12;49.48;102102.41;5060466;28;20024;-76
2023/12/27 02:32:47;;;;;;;22.53;6.57;;;;;;;14.55;48.15;102106.59;5058034;28;20099;-76
2023/12/27 02:35:13;;;;;;;17.53;6.60;;;;;;;14.46;47.67;102101.38;5059023;28;20059;-76
2023/12/27 02:37:38;;;;;;;9.43;6.10;;;;;;;14.35;48.46;102094.41;5052574;28;20112;-76
2023/12/27 02:40:04;;;;;;;18.20;6.37;;;;;;;14.28;48.33;102097.97;5042973;28;20033;-76
2023/12/27 02:42:30;;;;;;;15.60;5.97;;;;;;;14.20;48.51;102091.88;5062209;28;20021;-76
2023/12/27 02:44:55;;;;;;;19.47;7.57;;;;;;;14.03;48.62;102079.69;5056017;28;20053;-77
2023/12/27 02:47:21;;;;;;;18.20;6.73;;;;;;;14.50;48.14;102076.78;5062987;28;20052;-76
2023/12/27 02:49:46;;;;;;;17.03;6.90;;;;;;;14.02;49.08;102075.28;5055037;28;20028;-76
2023/12/27 02:52:11;;;;;;;14.47;5.93;;;;;;;14.49;48.54;102065.38;5054842;28;20033;-76
2023/12/27 02:54:37;;;;;;;13.87;7.53;;;;;;;14.43;48.11;102061.03;5041569;28;20025;-76
2023/12/27 02:57:02;;;;;;;17.23;6.73;;;;;;;14.51;48.72;102063.63;5060453;28;20442;-76
2023/12/27 02:59:31;;;;;;;12.03;6.30;;;;;;;14.48;48.50;102057.50;5053421;28;20029;-76
2023/12/27 03:01:56;;;;;;;19.80;7.43;;;;;;;14.74;48.02;102042.44;5072321;28;20189;-76
2023/12/27 03:04:22;;;;;;;10.47;6.03;;;;;;;14.83;47.52;102040.63;5065296;28;20510;-76
2023/12/27 03:06:47;;;;;;;18.43;7.33;;;;;;;14.43;48.48;102045.25;5066102;28;20037;-76
2023/12/27 03:09:13;;;;;;;15.40;6.70;;;;;;;14.59;48.03;102040.75;5053431;28;20263;-76
2023/12/27 03:11:38;;;;;;;9.53;5.83;;;;;;;14.74;48.33;102034.53;5084605;28;20048;-76
2023/12/27 03:14:04;;;;;;;12.03;6.43;;;;;;;14.52;48.28;102022.41;5072142;28;20033;-76
2023/12/27 03:16:29;;;;;;;15.07;6.23;;;;;;;15.00;47.75;102020.28;5056400;28;20078;-76
2023/12/27 03:18:55;;;;;;;11.37;6.10;;;;;;;14.39;48.77;102017.22;5068016;28;20029;-76
2023/12/27 03:21:20;;;;;;;15.30;5.83;;;;;;;14.47;48.65;102021.59;5056772;28;20472;-76
2023/12/27 03:23:47;;;;;;;14.43;5.83;;;;;;;13.67;50.86;102015.88;5051328;28;20579;-76
2023/12/27 03:26:12;;;;;;;14.67;6.27;;;;;;;14.52;48.90;102007.50;5059585;28;20053;-76
2023/12/27 03:28:38;;;;;;;16.63;6.20;;;;;;;14.14;50.04;101999.88;5051104;28;20111;-75
2023/12/27 03:31:03;;;;;;;12.57;5.77;;;;;;;14.38;49.03;101998.81;5061443;28;20028;-76
2023/12/27 03:33:29;;;;;;;18.33;6.13;;;;;;;14.20;49.32;102005.94;5070909;28;20070;-76
2023/12/27 03:35:54;;;;;;;13.27;5.40;;;;;;;14.58;49.50;101985.53;5064967;28;20039;-76
2023/12/27 03:38:19;;;;;;;13.50;6.10;;;;;;;14.02;50.11;101995.56;5067714;28;20021;-76
2023/12/27 03:40:45;;;;;;;15.33;6.53;;;;;;;15.17;47.39;101979.75;5055141;28;20071;-76
2023/12/27 03:43:10;;;;;;;11.00;5.33;;;;;;;14.86;48.49;101980.03;5054868;28;20036;-76
2023/12/27 03:45:36;;;;;;;14.13;5.27;;;;;;;14.85;48.21;101970.38;5054059;28;20033;-76
2023/12/27 03:48:01;;;;;;;11.77;5.97;;;;;;;13.95;50.53;101968.44;5057477;28;20045;-76
2023/12/27 03:50:27;;;;;;;11.23;6.13;;;;;;;14.81;48.22;101963.41;5033031;28;20500;-76
2023/12/27 03:52:52;;;;;;;23.27;6.33;;;;;;;13.46;51.06;101959.03;5069087;28;20028;-76
2023/12/27 03:55:18;;;;;;;11.70;5.70;;;;;;;14.66;48.96;101967.06;5048253;28;20025;-76
2023/12/27 03:57:43;;;;;;;13.10;5.73;;;;;;;14.27;49.83;101948.94;5059454;28;20507;-76
2023/12/27 04:00:12;;;;;;;19.23;6.00;;;;;;;14.34;49.80;101949.75;5052213;28;20021;-76
2023/12/27 04:02:37;;;;;;;10.83;5.77;;;;;;;14.22;50.83;101940.22;5065911;28;20032;-76
2023/12/27 04:05:03;;;;;;;10.03;5.60;;;;;;;14.27;49.51;101938.41;5072442;28;20016;-76
2023/12/27 04:07:32;;;;;;;13.97;5.60;;;;;;;14.84;49.36;101939.72;5057500;28;20108;-76
2023/12/27 04:09:57;;;;;;;14.27;6.03;;;;;;;14.90;49.05;101934.38;5052072;28;20021;-76
2023/12/27 04:12:23;;;;;;;13.13;5.87;;;;;;;14.96;48.80;101931.69;5063014;28;20077;-77
2023/12/27 04:14:48;;;;;;;15.67;5.40;;;;;;;15.17;48.03;101927.94;5051733;28;20039;-76
2023/12/27 04:17:13;;;;;;;15.07;5.40;;;;;;;14.63;48.86;101925.00;5052430;28;20108;-76
2023/12/27 04:19:39;;;;;;;8.80;5.13;;;;;;;14.08;49.89;101912.28;5050440;28;20036;-76
2023/12/27 04:22:05;;;;;;;11.63;5.20;;;;;;;14.41;49.61;101912.88;5057429;28;20017;-76
2023/12/27 04:24:30;;;;;;;16.93;4.73;;;;;;;15.20;47.89;101908.59;5070880;28;20517;-76
2023/12/27 04:26:55;;;;;;;11.00;5.77;;;;;;;14.91;49.01;101910.66;5066750;28;20028;-77
2023/12/27 04:29:21;;;;;;;14.07;5.40;;;;;;;15.59;46.96;101899.28;5034903;28;20029;-77
2023/12/27 04:31:47;;;;;;;14.77;5.87;;;;;;;15.86;46.85;101885.75;5038733;28;20384;-76
2023/12/27 04:34:12;;;;;;;12.10;4.77;;;;;;;15.19;48.60;101889.25;5051978;28;20021;-76
2023/12/27 04:36:38;;;;;;;9.80;5.07;;;;;;;15.02;48.37;101902.66;5050181;28;20469;-77
2023/12/27 04:39:03;;;;;;;17.53;5.33;;;;;;;15.10;48.16;101910.47;5058821;28;20032;-76
2023/12/27 04:41:32;;;;;;;12.63;5.30;;;;;;;15.40;47.44;101909.22;5030050;28;20117;-76
2023/12/27 04:43:59;;;;;;;14.97;5.93;;;;;;;15.10;48.46;101906.06;5069733;28;20056;-76
2023/12/27 04:46:25;;;;;;;13.57;5.43;;;;;;;15.12;48.59;101892.00;5050658;28;20041;-77
2023/12/27 04:48:50;;;;;;;13.10;4.93;;;;;;;14.96;48.74;101892.19;5061917;28;20533;-76
2023/12/27 04:51:16;;;;;;;10.17;4.77;;;;;;;14.93;48.32;101892.22;5048268;28;20025;-76
2023/12/27 04:53:42;;;;;;;10.13;3.90;;;;;;;14.13;50.58;101892.97;5060347;28;20404;-76
2023/12/27 04:56:08;;;;;;;11.57;4.57;;;;;;;14.55;49.42;101893.47;5051219;28;20472;-76
2023/12/27 04:58:35;;;;;;;15.60;4.70;;;;;;;15.13;48.03;101883.22;5050446;28;20100;-76
2023/12/27 05:01:05;;;;;;;14.87;4.93;;;;;;;14.41;50.47;101873.44;5051072;28;20024;-76
2023/12/27 05:03:34;;;;;;;19.93;5.53;;;;;;;14.43;50.53;101861.13;5058472;28;20063;-76
2023/12/27 05:06:01;;;;;;;11.83;4.97;;;;;;;14.76;49.16;101864.31;5070300;28;20048;-76
2023/12/27 05:08:26;;;;;;;18.87;4.67;;;;;;;14.50;50.10;101856.69;5059959;28;20029;-76
2023/12/27 05:10:52;;;;;;;15.13;4.67;;;;;;;14.13;51.28;101858.78;5050526;28;20031;-77
2023/12/27 05:13:17;;;;;;;13.17;4.17;;;;;;;13.23;53.10;101861.97;5058715;28;20035;-76
2023/12/27 05:15:42;;;;;;;20.17;5.43;;;;;;;14.70;50.49;101848.63;5051469;28;20040;-76
2023/12/27 05:18:08;;;;;;;10.67;4.53;;;;;;;13.93;51.90;101838.81;5043425;28;20031;-77
2023/12/27 05:20:33;;;;;;;13.10;5.00;;;;;;;13.49;54.17;101825.09;5061209;28;20384;-77
2023/12/27 05:22:59;;;;;;;11.60;5.03;;;;;;;14.26;52.05;101828.88;5053193;28;20027;-77
2023/12/27 05:25:24;;;;;;;8.97;4.27;;;;;;;14.61;51.22;101825.00;5069532;28;20025;-78
2023/12/27 05:27:49;;;;;;;24.10;5.70;;;;;;;14.60;51.92;101815.34;5068236;28;20050;-77
2023/12/27 05:30:15;;;;;;;0.10;0.10;;;;;;;13.38;54.50;101814.66;5050226;28;20024;-78
2023/12/27 05:32:40;;;;;;;0.87;0.87;;;;;;;12.79;55.96;101818.38;5049069;28;20408;-78
2023/12/27 05:35:06;;;;;;;0.00;0.00;;;;;;;12.91;56.09;101826.22;5070172;28;20135;-78
2023/12/27 05:37:31;;;;;;;0.53;0.53;;;;;;;13.32;55.39;101834.78;5052616;28;20033;-77
2023/12/27 05:39:56;;;;;;;0.00;0.00;;;;;;;13.46;55.65;101826.84;5056544;28;20024;-77
2023/12/27 05:42:23;;;;;;;0.00;0.00;;;;;;;13.73;54.88;101826.66;5049967;28;20028;-77
2023/12/27 05:44:48;;;;;;;0.10;0.10;;;;;;;13.57;56.52;101809.25;5059641;28;20314;-77
2023/12/27 05:47:13;;;;;;;0.17;0.17;;;;;;;14.12;53.97;101818.47;5048743;28;20048;-77
2023/12/27 05:49:39;;;;;;;0.17;0.17;;;;;;;13.71;54.61;101807.44;5057272;28;20104;-77
2023/12/27 05:52:04;;;;;;;0.10;0.10;;;;;;;14.30;53.14;101806.94;5046532;28;20040;-77
2023/12/27 05:54:30;;;;;;;0.67;0.63;;;;;;;15.09;51.11;101793.72;5072072;28;20032;-77
2023/12/27 05:56:55;;;;;;;0.50;0.50;;;;;;;14.71;52.23;101783.69;5052188;28;20128;-77
2023/12/27 05:59:20;;;;;;;0.00;0.00;;;;;;;14.58;52.81;101796.09;5052105;28;20031;-77
2023/12/27 06:01:47;;;;;;;0.40;0.40;;;;;;;14.93;51.87;101792.19;5049006;28;20025;-77
2023/12/27 06:04:14;;;;;;;0.30;0.30;;;;;;;13.85;53.71;101794.19;5064636;28;20392;-77
2023/12/27 06:06:40;;;;;;;0.40;0.40;;;;;;;13.86;54.55;101795.03;5062658;28;20036;-77
2023/12/27 06:09:05;;;;;;;0.87;0.87;;;;;;;14.03;55.18;101787.88;5062729;28;20020;-77
2023/12/27 06:11:31;;;;;;;0.20;0.20;;;;;;;14.29;53.82;101778.88;5073401;28;20595;-78
2023/12/27 06:13:56;;;;;;;0.87;0.60;;;;;;;13.80;55.80;101779.34;5060344;28;20024;-78
2023/12/27 06:16:21;;;;;;;0.20;0.13;;;;;;;13.78;55.13;101775.84;5053344;28;20102;-78
2023/12/27 06:18:47;;;;;;;0.00;0.00;;;;;;;13.76;56.56;101762.72;5075964;28;20031;-77
2023/12/27 06:21:12;;;;;;;0.10;0.10;;;;;;;14.21;54.24;101759.69;5055877;28;20017;-77
2023/12/27 06:23:37;;;;;;;0.10;0.10;;;;;;;14.79;53.26;101749.41;5057521;28;20115;-77
2023/12/27 06:26:03;;;;;;;0.00;0.00;;;;;;;14.50;54.05;101745.34;5069067;28;20144;-77
2023/12/27 06:28:29;;;;;;;0.87;0.87;;;;;;;13.88;57.01;101745.97;5054528;28;20112;-77
2023/12/27 06:30:54;;;;;;;0.40;0.40;;;;;;;14.35;54.74;101741.13;5058517;28;20021;-77
2023/12/27 06:33:19;;;;;;;0.00;0.00;;;;;;;15.02;53.41;101713.09;5049417;28;20469;-77
2023/12/27 06:35:45;;;;;;;0.00;0.00;;;;;;;14.37;55.52;101713.03;5055305;28;20029;-77
2023/12/27 06:38:10;;;;;;;0.30;0.30;;;;;;;14.37;54.37;101708.66;5054261;28;20017;-77
2023/12/27 06:40:36;;;;;;;1.30;1.07;;;;;;;14.55;53.93;101702.28;5071098;28;20058;-77
2023/12/27 06:43:02;;;;;;;0.07;0.07;;;;;;;14.52;54.81;101698.81;5049195;28;20099;-76
2023/12/27 06:45:27;;;;;;;0.20;0.20;;;;;;;14.94;54.04;101701.81;5064063;28;20017;-77
2023/12/27 06:47:53;;;;;;;0.00;0.00;;;;;;;15.36;52.92;101691.50;5053698;28;20056;-77
2023/12/27 06:50:18;;;;;;;0.20;0.20;;;;;;;15.50;52.01;101687.78;5064669;28;20027;-76
2023/12/27 06:52:44;;;;;;;0.10;0.10;;;;;;;15.20;53.25;101693.50;5077435;28;20411;-78
2023/12/27 06:55:09;;;;;;;0.40;0.40;;;;;;;13.78;57.10;101705.78;5064188;28;20112;-77
2023/12/27 06:57:35;;;;;;;0.30;0.30;;;;;;;13.90;57.22;101707.41;5047977;28;20039;-77
2023/12/27 07:00:00;;;;;;;0.00;0.00;;;;;;;14.94;54.90;101693.91;5052710;28;20100;-77
2023/12/27 07:02:25;;;;;;;0.20;0.20;;;;;;;15.06;53.51;101698.97;5052957;28;20036;-77
2023/12/27 07:04:51;;;;;;;0.10;0.10;;;;;;;14.78;53.46;101698.50;5056880;28;20392;-77
2023/12/27 07:07:16;;;;;;;0.00;0.00;;;;;;;14.82;55.08;101691.44;5059308;28;20071;-77
2023/12/27 07:09:42;;;;;;;0.00;0.00;;;;;;;13.72;57.89;101693.56;5045112;28;20115;-77
2023/12/27 07:12:09;;;;;;;0.47;0.47;;;;;;;14.17;56.96;101686.97;5058409;28;20048;-77
2023/12/27 07:14:35;;;;;;;0.00;0.00;;;;;;;13.33;59.45;101690.34;5053375;28;20060;-78
2023/12/27 07:17:00;;;;;;;1.00;1.00;;;;;;;13.64;60.14;101690.16;5071996;28;20500;-77
2023/12/27 07:19:25;;;;;;;0.20;0.20;;;;;;;13.96;58.57;101681.06;5072979;28;20625;-77
2023/12/27 07:21:51;;;;;;;0.60;0.60;;;;;;;14.58;56.67;101675.06;5068057;28;20060;-78
2023/12/27 07:24:16;;;;;;;0.30;0.30;;;;;;;14.45;56.51;101671.72;5048221;28;20033;-77
2023/12/27 07:26:42;;;;;;;1.37;0.83;;;;;;;14.83;55.23;101667.72;5061613;28;20025;-77
2023/12/27 07:29:07;;;;;;;0.27;0.10;;;;;;;14.35;57.39;101665.72;5048393;28;20041;-77
2023/12/27 07:31:33;;;;;;;0.00;0.00;;;;;;;14.74;56.31;101666.13;5057863;28;20064;-78
2023/12/27 07:33:58;;;;;;;0.20;0.20;;;;;;;13.40;60.37;101670.22;5052282;28;20053;-78
2023/12/27 07:36:23;;;;;;;0.20;0.20;;;;;;;14.07;60.51;101660.78;5068936;28;20021;-78
2023/12/27 07:38:49;;;;;;;0.00;0.00;;;;;;;14.21;59.01;101659.75;5047852;28;20072;-78
2023/12/27 07:41:14;;;;;;;0.13;0.13;;;;;;;14.67;56.98;101653.94;5047555;28;20488;-78
2023/12/27 07:43:41;;;;;;;0.13;0.13;;;;;;;14.64;57.36;101659.22;5048494;28;20033;-79
2023/12/27 07:46:08;;;;;;;0.00;0.00;;;;;;;14.71;56.67;101649.50;5046567;28;20115;-78
2023/12/27 07:48:33;;;;;;;0.00;0.00;;;;;;;14.23;58.74;101655.34;5052710;28;20036;-78
2023/12/27 07:50:59;;;;;;;0.10;0.10;;;;;;;14.14;59.69;101658.97;5052715;28;20016;-78
2023/12/27 07:53:24;;;;;;;0.10;0.10;;;;;;;14.38;59.42;101663.06;5067410;28;20027;-78
2023/12/27 07:55:49;;;;;;;0.23;0.23;;;;;;;14.39;59.33;101649.00;5075668;28;20033;-78
2023/12/27 07:58:15;;;;;;;0.00;0.00;;;;;;;13.65;61.33;101660.34;5052414;28;20036;-78
2023/12/27 08:00:40;;;;;;;0.00;0.00;;;;;;;13.67;61.60;101655.06;5056236;28;20379;-77
2023/12/27 08:03:08;;;;;;;0.00;0.00;;;;;;;13.95;62.30;101646.91;5058896;28;20033;-77
2023/12/27 08:05:35;;;;;;;0.43;0.43;;;;;;;14.01;60.96;101636.31;5064216;28;20044;-78
2023/12/27 08:08:02;;;;;;;0.00;0.00;;;;;;;14.48;58.57;101631.34;5071439;28;20032;-77
2023/12/27 08:10:27;;;;;;;0.00;0.00;;;;;;;14.01;61.22;101631.97;5059576;28;20024;-78
2023/12/27 08:12:53;;;;;;;0.20;0.20;;;;;;;14.69;59.22;101620.56;5049905;28;20389;-78
2023/12/27 08:15:18;;;;;;;0.00;0.00;;;;;;;14.83;58.75;101611.59;5041353;28;20021;-78
2023/12/27 08:17:43;;;;;;;0.00;0.00;;;;;;;14.30;60.01;101612.31;5059694;28;20036;-78
2023/12/27 08:20:10;;;;;;;1.50;0.50;;;;;;;13.77;61.93;101611.22;5050757;28;20119;-77
2023/12/27 08:22:35;;;;;;;0.10;0.10;;;;;;;13.97;63.87;101609.22;5068067;28;20020;-77
2023/12/27 08:25:01;;;;;;;0.10;0.10;;;;;;;13.84;64.55;101595.34;5051019;28;20025;-76
2023/12/27 08:27:26;;;;;;;0.00;0.00;;;;;;;13.72;63.49;101593.75;5067308;28;20170;-77
2023/12/27 08:29:52;;;;;;;0.37;0.37;;;;;;;13.95;62.40;101595.22;5050788;28;20047;-77
2023/12/27 08:32:17;;;;;;;0.40;0.40;;;;;;;14.30;61.38;101586.03;5053397;28;20032;-77
2023/12/27 08:34:42;;;;;;;0.10;0.10;;;;;;;14.88;60.07;101580.81;5041626;28;20029;-77
2023/12/27 08:37:08;;;;;;;0.10;0.10;;;;;;;14.39;61.64;101575.34;5074264;28;20476;-77
2023/12/27 08:39:33;;;;;;;0.10;0.10;;;;;;;14.26;63.58;101576.44;5051816;28;20029;-77
2023/12/27 08:41:59;;;;;;;0.50;0.50;;;;;;;14.40;62.80;101571.84;5049462;28;20449;-78
2023/12/27 08:44:24;;;;;;;0.93;0.93;;;;;;;14.76;60.88;101574.84;5045938;28;20024;-77
2023/12/27 08:46:50;;;;;;;0.20;0.20;;;;;;;14.44;61.68;101577.94;5049601;28;20397;-77
2023/12/27 08:49:16;;;;;;;0.33;0.30;;;;;;;14.76;61.57;101569.56;5051095;28;20028;-77
2023/12/27 08:51:41;;;;;;;0.73;0.73;;;;;;;13.93;63.95;101540.94;5054285;28;20512;-77
2023/12/27 08:54:06;;;;;;;0.20;0.20;;;;;;;13.15;69.25;101565.38;5070520;28;20020;-77
2023/12/27 08:56:32;;;;;;;0.10;0.10;;;;;;;14.50;63.39;101563.81;5066602;28;20476;-78
2023/12/27 08:58:57;;;;;;;0.27;0.27;;;;;;;14.55;64.10;101562.00;5050979;28;20032;-77
2023/12/27 09:01:23;;;;;;;0.00;0.00;;;;;;;14.58;65.81;101561.94;5052321;28;20028;-77
2023/12/27 09:03:49;;;;;;;0.10;0.10;;;;;;;14.38;65.45;101549.97;5053132;28;20039;-77
2023/12/27 09:06:14;;;;;;;0.37;0.37;;;;;;;14.50;66.25;101542.78;5050968;28;20028;-77
2023/12/27 09:08:40;;;;;;;1.90;1.80;;;;;;;14.50;64.88;101551.53;5046186;28;20079;-77
2023/12/27 09:11:05;;;;;;;0.83;0.83;;;;;;;15.55;61.57;101536.63;5046198;28;20033;-77
2023/12/27 09:13:31;;;;;;;0.20;0.20;;;;;;;15.20;62.31;101548.66;5046439;28;20037;-76
2023/12/27 09:15:56;;;;;;;0.00;0.00;;;;;;;15.14;63.24;101542.63;5042903;28;20033;-77
2023/12/27 09:18:21;;;;;;;0.10;0.10;;;;;;;15.05;63.75;101534.00;5063837;28;20459;-77
2023/12/27 09:20:47;;;;;;;0.00;0.00;;;;;;;14.89;64.78;101540.44;5069887;28;20066;-77
2023/12/27 09:23:12;;;;;;;0.20;0.20;;;;;;;14.78;65.49;101540.59;5057486;28;20435;-77
2023/12/27 09:25:38;;;;;;;0.10;0.10;;;;;;;15.32;62.59;101544.94;5045241;28;20025;-77
2023/12/27 09:28:04;;;;;;;0.80;0.40;;;;;;;15.54;61.12;101541.91;5048695;28;20575;-77
2023/12/27 09:30:29;;;;;;;0.37;0.37;;;;;;;15.75;60.33;101530.94;5054019;28;20021;-77
2023/12/27 09:32:55;;;;;;;0.10;0.10;;;;;;;15.90;60.25;101531.56;5048980;28;20378;-77
2023/12/27 09:35:20;;;;;;;0.93;0.43;;;;;;;15.55;61.58;101517.28;5050089;28;20020;-77
2023/12/27 09:37:46;;;;;;;0.13;0.13;;;;;;;15.90;59.56;101508.69;5047355;28;20422;-77
2023/12/27 09:40:11;;;;;;;0.00;0.00;;;;;;;15.63;60.44;101507.47;5049714;28;20139;-77
2023/12/27 09:42:38;;;;;;;0.17;0.17;;;;;;;16.01;60.08;101500.53;5048646;28;20162;-77
2023/12/27 09:45:05;;;;;;;0.20;0.13;;;;;;;16.54;58.87;101492.28;5047030;28;20025;-77
2023/12/27 09:47:30;;;;;;;1.33;0.83;;;;;;;16.61;57.97;101490.38;5049904;28;20045;-76
2023/12/27 09:49:58;;;;;;;0.93;0.93;;;;;;;15.82;60.87;101486.91;5069498;28;20029;-77
2023/12/27 09:52:23;;;;;;;1.50;0.97;;;;;;;16.56;58.47;101492.25;5057925;28;20029;-77
2023/12/27 09:54:49;;;;;;;0.17;0.17;;;;;;;15.52;61.81;101491.00;5060369;28;20028;-77
2023/12/27 09:57:15;;;;;;;1.30;0.97;;;;;;;16.77;57.97;101491.72;5044714;28;20119;-77
2023/12/27 09:59:45;;;;;;;0.00;0.00;;;;;;;15.74;60.40;101496.69;5047157;28;20048;-77
2023/12/27 10:02:18;;;;;;;0.13;0.13;;;;;;;15.80;61.80;101490.47;5048694;28;20017;-76
2023/12/27 10:04:44;;;;;;;0.00;0.00;;;;;;;16.42;59.05;101496.09;5051987;28;20089;-76
2023/12/27 10:07:11;;;;;;;0.17;0.17;;;;;;;16.79;57.83;101495.19;5048906;28;20033;-76
2023/12/27 10:09:38;;;;;;;0.20;0.20;;;;;;;16.72;58.50;101493.59;5054827;28;20025;-76
2023/12/27 10:12:07;;;;;;;0.93;0.33;;;;;;;16.89;58.65;101494.97;5046088;28;20064;-77
2023/12/27 10:14:35;;;;;;;8.40;0.33;;;;;;;16.25;59.68;101488.59;5047943;28;20056;-77
2023/12/27 10:17:02;;;;;;;0.87;0.87;;;;;;;16.54;59.76;101478.22;5064908;28;20098;-77
2023/12/27 10:19:42;;;;;;;4.43;0.53;;;;;;;16.29;60.74;101484.09;5048929;28;20036;-76
2023/12/27 10:22:09;;;;;;;0.10;0.10;;;;;;;16.61;59.01;101470.13;5049197;28;20025;-76
2023/12/27 10:24:34;;;;;;;0.10;0.10;;;;;;;16.10;61.89;101468.72;5061030;28;20491;-76
2023/12/27 10:27:10;;;;;;;0.00;0.00;;;;;;;17.30;57.44;101448.09;5069718;28;20021;-76
2023/12/27 10:29:35;;;;;;;0.07;0.07;;;;;;;17.22;57.71;101460.66;5059948;28;20021;-77
2023/12/27 10:32:03;;;;;;;0.10;0.10;;;;;;;16.91;58.81;101450.91;5049176;28;20108;-76
2023/12/27 10:34:31;;;;;;;0.07;0.07;;;;;;;16.44;61.15;101446.81;5056592;28;20055;-76
2023/12/27 10:36:59;;;;;;;1.90;0.70;;;;;;;15.90;63.15;101441.94;5069025;28;20491;-77
2023/12/27 10:39:25;;;;;;;0.00;0.00;;;;;;;15.98;63.72;101434.72;5060748;28;20029;-76
2023/12/27 10:41:53;;;;;;;0.10;0.10;;;;;;;15.60;65.94;101431.13;5047908;28;20033;-76
2023/12/27 10:44:19;;;;;;;0.00;0.00;;;;;;;15.81;64.94;101434.22;5056793;28;20460;-76
2023/12/27 10:46:46;;;;;;;0.17;0.17;;;;;;;16.33;64.06;101440.91;5041055;28;20509;-76
2023/12/27 10:49:13;;;;;;;0.20;0.20;;;;;;;15.68;65.98;101429.19;5038140;28;20020;-76
2023/12/27 10:51:40;;;;;;;0.00;0.00;;;;;;;15.64;67.37;101447.75;5072057;28;20104;-76
2023/12/27 10:54:06;;;;;;;0.00;0.00;;;;;;;16.08;65.48;101444.13;5069068;28;20075;-77
2023/12/27 10:56:39;;;;;;;0.13;0.13;;;;;;;15.95;66.54;101453.25;5068471;28;20036;-76
2023/12/27 10:59:09;;;;;;;0.57;0.57;;;;;;;16.25;64.96;101442.84;5051724;28;20025;-76
2023/12/27 11:01:38;;;;;;;0.00;0.00;;;;;;;16.21;64.35;101430.66;5051802;28;20021;-76
2023/12/27 11:04:10;;;;;;;0.00;0.00;;;;;;;16.15;65.43;101428.16;5047934;28;20112;-76
2023/12/27 11:06:39;;;;;;;0.00;0.00;;;;;;;16.09;65.41;101416.84;5071997;28;20021;-76
2023/12/27 11:09:13;;;;;;;0.00;0.00;;;;;;;16.73;62.00;101408.25;5054788;28;20028;-76
2023/12/27 11:11:40;;;;;;;0.00;0.00;;;;;;;15.68;64.80;101394.06;5052430;28;20516;-76
2023/12/27 11:14:11;;;;;;;0.87;0.87;;;;;;;15.58;66.70;101393.41;5050997;28;20159;-76
2023/12/27 11:16:42;;;;;;;0.00;0.00;;;;;;;15.49;68.27;101401.50;5050473;28;20028;-76